الصفحة الرئيسية
METAR-TAF:

METAR-TAF

مطار :

Rock Springs - Sweetwater County Airport

Rock Springs, وايومنغ, الولايات المتحدة

دائرة عرض: 41-35-39N, خط طول: 109-03-55W, ارتفاع: 2060 متر

مراقبة الطقس الحالي

تاريخ ووقت الإصدار 12 دقيقة قبل الساعة 22:54UTC
ريح 3 عقدةمن اتجاهات متغيرة
درجة الحرارة 5°درجة مئوية
الرطوبة 28%
ضغط 1027 hPa
الرؤية: 16.1 كم
سماء صافية

METAR: KRKS 152254Z AUTO VRB03KT 10SM CLR 05/M12 A3034 RMK AO2 SLP297 T00501122

زمن: 17:06 (23:06 UTC)

توقعات

تاريخ ووقت الإصدار 5ساعات و 46 دقيقة قبل الساعة 17:20UTC
التوقعات صالحة من15 الساعة 18 UTC إلى 16 الساعة 18 UTC
ريح 10 عقدة من الغرب/الجنوب الغربي
الرؤية: 10 كم
سماء صافية
من 15 الساعة 2300 UTC
ريح 8 عقدة من الغرب
الرؤية: 10 كم
غيوم قليلة على ارتفاع 10000 قدم
من 16 الساعة 0300 UTC
ريح 7 عقدة من الجنوب الغربي
الرؤية: 10 كم
سماء صافية
من 16 الساعة 1200 UTC
ريح 4 عقدةمن اتجاهات متغيرة
الرؤية: 10 كم
سماء صافية

TAF: KRKS 151720Z 1518/1618 25010KT P6SM SKC FM152300 27008KT P6SM FEW100 FM160300 23007KT P6SM SKC FM161200 VRB04KT P6SM SKC

أرصاد الطقس والتوقعات من أكثر من 4000 مطار (تقارير الطقس للمطار METAR والتنبؤ بالطقس بالمطارTAF).

المحطات المتاحة هي النقط الصفراء والحمراء على الخريطة.

حرك المؤشر فوق النقطة لمعرفة اسم المحطة.

ثم انقر لمعرفة أرصاد وتوقعات الطقس.

لتغيير الخارطة: اضغط على الأزرار الخضراء مع رمز الصليب الأسود للتكبير. على الزر الأخضر مع شرطة للتصغير، أو على الأسهم الخضراء للخرائط المجاورة.


METAR-TAF: